createdAt,value
2023-05-12T00:00:21.066Z,10.16
2023-05-12T00:10:45.302Z,10.00
2023-05-12T00:20:49.078Z,9.91
2023-05-12T00:30:55.452Z,9.83
2023-05-12T00:41:02.716Z,9.81
2023-05-12T00:51:07.001Z,9.75
2023-05-12T01:01:11.248Z,9.65
2023-05-12T01:11:18.863Z,9.63
2023-05-12T01:21:22.716Z,9.54
2023-05-12T01:31:27.372Z,9.46
2023-05-12T01:41:31.062Z,9.41
2023-05-12T01:51:34.960Z,9.39
2023-05-12T02:01:38.509Z,9.28
2023-05-12T02:11:42.159Z,9.16
2023-05-12T02:21:45.930Z,8.99
2023-05-12T02:31:49.811Z,8.92
2023-05-12T02:41:53.921Z,8.80
2023-05-12T02:51:57.700Z,8.72
2023-05-12T03:02:01.317Z,8.64
2023-05-12T03:12:05.070Z,8.61
2023-05-12T03:22:09.111Z,8.61
2023-05-12T03:32:12.932Z,8.74
2023-05-12T03:42:18.093Z,10.22
2023-05-12T03:52:21.623Z,11.47
2023-05-12T04:02:25.441Z,12.70
2023-05-12T04:12:29.279Z,13.26
2023-05-12T04:22:33.145Z,13.69
2023-05-12T04:32:36.967Z,14.23
2023-05-12T04:42:41.151Z,14.80
2023-05-12T04:52:48.526Z,15.15
2023-05-12T05:02:52.276Z,15.28
2023-05-12T05:12:56.200Z,15.17
2023-05-12T05:23:03.606Z,15.08
2023-05-12T05:33:12.040Z,14.69
2023-05-12T05:43:15.758Z,14.75
2023-05-12T05:53:19.962Z,15.24
2023-05-12T06:03:25.194Z,15.40
2023-05-12T06:13:32.608Z,15.12
2023-05-12T06:23:36.302Z,15.04
2023-05-12T06:33:40.491Z,15.52
2023-05-12T06:43:44.194Z,15.69
2023-05-12T06:53:51.549Z,15.44
2023-05-12T07:03:55.403Z,15.24
2023-05-12T07:13:58.945Z,15.45
2023-05-12T07:24:02.923Z,15.93
2023-05-12T07:34:06.761Z,16.02
2023-05-12T07:44:10.663Z,16.33
2023-05-12T07:54:14.167Z,16.49
2023-05-12T08:04:17.744Z,16.99
2023-05-12T08:14:21.433Z,17.26
2023-05-12T08:24:25.812Z,17.64
2023-05-12T08:34:30.526Z,17.81
2023-05-12T08:44:35.408Z,18.36
2023-05-12T08:54:55.057Z,18.70
2023-05-12T09:05:03.727Z,18.94
2023-05-12T09:15:11.196Z,18.79
2023-05-12T09:25:18.986Z,18.81
2023-05-12T09:35:22.490Z,19.20
2023-05-12T09:45:26.522Z,19.33
2023-05-12T09:55:31.249Z,19.36
2023-05-12T10:05:36.584Z,19.46
2023-05-12T10:15:40.116Z,19.51
2023-05-12T10:25:44.651Z,19.84
2023-05-12T10:35:49.903Z,19.73
2023-05-12T10:46:15.167Z,19.81
2023-05-12T11:06:29.121Z,20.10
2023-05-12T11:16:33.026Z,20.14
2023-05-12T11:26:41.099Z,19.86
2023-05-12T11:36:46.510Z,20.09
2023-05-12T11:46:56.471Z,19.98
2023-05-12T11:57:00.920Z,20.33
2023-05-12T12:07:29.906Z,20.23
2023-05-12T12:17:57.062Z,20.10
2023-05-12T12:28:02.226Z,19.80
2023-05-12T12:38:05.974Z,19.53
2023-05-12T12:48:10.104Z,19.89
2023-05-12T12:58:14.001Z,20.15
2023-05-12T13:08:17.798Z,20.26
2023-05-12T13:18:21.496Z,20.12
2023-05-12T13:28:25.451Z,19.52
2023-05-12T13:38:29.179Z,19.34
2023-05-12T13:48:32.575Z,19.46
2023-05-12T13:58:39.849Z,19.54
2023-05-12T14:08:43.648Z,19.54
2023-05-12T14:18:47.207Z,19.27
2023-05-12T14:28:54.685Z,19.22
2023-05-12T14:38:58.646Z,19.22
2023-05-12T14:49:02.908Z,19.22
2023-05-12T14:59:06.551Z,18.87
2023-05-12T15:09:13.638Z,18.48
2023-05-12T15:19:17.585Z,18.65
2023-05-12T15:39:25.946Z,18.25
2023-05-12T15:49:29.942Z,18.21
2023-05-12T15:59:37.823Z,18.12
2023-05-12T16:09:43.002Z,18.04
2023-05-12T16:19:47.677Z,17.97
2023-05-12T16:39:55.234Z,17.62
2023-05-12T16:49:59.145Z,17.45
2023-05-12T17:00:05.031Z,17.30
2023-05-12T17:10:08.091Z,17.06
2023-05-12T17:20:13.251Z,16.81
2023-05-12T17:30:18.069Z,16.58
2023-05-12T17:40:22.733Z,16.44
2023-05-12T17:50:26.511Z,16.26
2023-05-12T18:00:29.680Z,16.05
2023-05-12T18:10:35.271Z,15.75
2023-05-12T18:20:39.224Z,15.48
2023-05-12T18:30:42.915Z,15.21
2023-05-12T18:50:58.104Z,14.70
2023-05-12T19:01:01.904Z,14.46
2023-05-12T19:11:05.790Z,14.28
2023-05-12T19:21:09.560Z,14.07
2023-05-12T19:31:13.261Z,13.87
2023-05-12T19:41:21.018Z,13.66
2023-05-12T19:51:25.008Z,13.44
2023-05-12T20:01:28.977Z,13.13
2023-05-12T20:11:33.094Z,12.96
2023-05-12T20:21:36.397Z,12.86
2023-05-12T20:31:40.384Z,12.77
2023-05-12T20:41:45.680Z,12.69
2023-05-12T20:51:52.750Z,12.59
2023-05-12T21:01:56.586Z,12.44
2023-05-12T21:12:00.732Z,12.29
2023-05-12T21:22:04.571Z,12.16
2023-05-12T21:32:08.447Z,12.09
2023-05-12T21:42:23.920Z,11.98
2023-05-12T21:52:27.960Z,11.83
2023-05-12T22:02:31.685Z,11.69
2023-05-12T22:12:36.294Z,11.53
2023-05-12T22:22:40.170Z,11.33
2023-05-12T22:32:43.332Z,11.20
2023-05-12T22:42:47.216Z,11.14
2023-05-12T22:52:50.889Z,11.03
2023-05-12T23:02:55.705Z,10.87
2023-05-12T23:13:02.697Z,10.76
2023-05-12T23:23:06.215Z,10.57
2023-05-12T23:33:09.812Z,10.40
2023-05-12T23:43:16.658Z,10.24
2023-05-12T23:53:23.649Z,10.13
